Time;durP1;ratioP1;P1;durP2;ratioP2;P2;SDS_P1;SDS_P2;PMS_P1;PMS_P2;Temp;Humidity;BMP_temperature;BMP_pressure;BME280_temperature;BME280_humidity;BME280_pressure;Samples;Min_cycle;Max_cycle;Signal;HPM_P1;HPM_P2
2022/01/01 00:00:33;;;;;;;0.32;0.30;;;;;;;;;;4881826;29;20076;-56
2022/01/01 00:03:00;;;;;;;1.23;1.15;;;;;;;;;;4882483;29;20067;-57
2022/01/01 00:05:26;;;;;;;9.32;1.38;;;;;;;;;;4880826;29;20144;-56
2022/01/01 00:07:52;;;;;;;1.17;0.93;;;;;;;;;;4881879;29;20044;-56
2022/01/01 00:10:19;;;;;;;1.23;1.13;;;;;;;;;;4885784;29;20060;-55
2022/01/01 00:12:48;;;;;;;0.52;0.52;;;;;;;;;;4885667;29;20064;-56
2022/01/01 00:15:15;;;;;;;4.43;1.75;;;;;;;;;;4884932;29;20044;-56
2022/01/01 00:17:41;;;;;;;1.33;1.10;;;;;;;;;;4883898;29;20462;-55
2022/01/01 00:20:09;;;;;;;1.55;1.05;;;;;;;;;;4885546;29;20045;-55
2022/01/01 00:22:36;;;;;;;0.77;0.50;;;;;;;;;;4884400;29;20167;-56
2022/01/01 00:25:02;;;;;;;2.72;1.85;;;;;;;;;;4885140;29;20131;-56
2022/01/01 00:27:28;;;;;;;0.47;0.47;;;;;;;;;;4884003;29;20059;-55
2022/01/01 00:29:54;;;;;;;1.10;0.55;;;;;;;;;;4886037;29;20044;-55
2022/01/01 00:32:20;;;;;;;0.20;0.20;;;;;;;;;;4885164;29;20123;-56
2022/01/01 00:35:05;;;;;;;0.40;0.40;;;;;;;;;;4860715;29;20043;-53
2022/01/01 00:37:31;;;;;;;2.25;1.27;;;;;;;;;;4860021;29;20747;-55
2022/01/01 00:39:57;;;;;;;2.45;0.98;;;;;;;;;;4861513;29;20757;-55
2022/01/01 00:42:24;;;;;;;1.05;0.98;;;;;;;;;;4861884;29;20072;-58
2022/01/01 00:44:50;;;;;;;1.02;0.73;;;;;;;;;;4862596;29;20053;-57
2022/01/01 00:47:16;;;;;;;1.42;0.90;;;;;;;;;;4861039;29;20505;-57
2022/01/01 00:49:41;;;;;;;1.50;1.35;;;;;;;;;;4861763;29;20097;-57
2022/01/01 00:52:07;;;;;;;3.47;1.35;;;;;;;;;;4861802;29;20442;-57
2022/01/01 00:54:33;;;;;;;1.52;0.75;;;;;;;;;;4861227;29;20045;-56
2022/01/01 00:56:59;;;;;;;0.93;0.65;;;;;;;;;;4860854;29;20404;-56
2022/01/01 00:59:25;;;;;;;0.55;0.40;;;;;;;;;;4861138;29;20464;-56
2022/01/01 01:01:51;;;;;;;0.50;0.50;;;;;;;;;;4860653;29;20056;-56
2022/01/01 01:04:17;;;;;;;2.55;1.08;;;;;;;;;;4858952;29;20553;-53
2022/01/01 01:06:43;;;;;;;0.30;0.30;;;;;;;;;;4877659;29;20040;-56
2022/01/01 01:09:09;;;;;;;1.40;1.30;;;;;;;;;;4886378;29;20426;-56
2022/01/01 01:11:42;;;;;;;1.05;0.93;;;;;;;;;;4884913;29;20116;-55
2022/01/01 01:14:10;;;;;;;5.47;1.65;;;;;;;;;;4886390;29;20044;-56
2022/01/01 01:16:36;;;;;;;3.25;1.27;;;;;;;;;;4884666;29;20044;-56
2022/01/01 01:19:01;;;;;;;1.20;1.08;;;;;;;;;;4888526;29;20056;-57
2022/01/01 01:21:28;;;;;;;1.60;1.10;;;;;;;;;;4891717;29;20048;-58
2022/01/01 01:23:55;;;;;;;3.10;1.00;;;;;;;;;;4897555;29;20059;-57
2022/01/01 01:26:23;;;;;;;7.03;2.53;;;;;;;;;;4893878;29;20179;-58
2022/01/01 01:28:51;;;;;;;8.50;2.00;;;;;;;;;;4895665;29;20045;-56
2022/01/01 01:31:17;;;;;;;8.00;2.70;;;;;;;;;;4893278;29;20467;-58
2022/01/01 01:33:46;;;;;;;2.00;1.35;;;;;;;;;;4889027;29;20184;-57
2022/01/01 01:36:12;;;;;;;19.38;1.60;;;;;;;;;;4884222;29;20115;-56
2022/01/01 01:38:38;;;;;;;0.30;0.30;;;;;;;;;;4883766;29;20055;-57
2022/01/01 01:41:05;;;;;;;1.50;1.38;;;;;;;;;;4885626;29;20040;-57
2022/01/01 01:43:30;;;;;;;0.95;0.90;;;;;;;;;;4883636;29;20614;-54
2022/01/01 01:46:02;;;;;;;1.00;0.82;;;;;;;;;;4883916;29;20067;-58
2022/01/01 01:48:28;;;;;;;0.40;0.40;;;;;;;;;;4882673;29;20251;-57
2022/01/01 01:50:55;;;;;;;0.82;0.60;;;;;;;;;;4883866;29;20573;-56
2022/01/01 01:53:21;;;;;;;3.15;1.42;;;;;;;;;;4882957;29;20041;-56
2022/01/01 01:55:47;;;;;;;0.65;0.65;;;;;;;;;;4883129;29;20316;-55
2022/01/01 01:58:13;;;;;;;2.05;1.85;;;;;;;;;;4883673;29;20046;-57
2022/01/01 02:03:20;;;;;;;1.25;0.77;;;;;;;;;;4880793;29;20077;-56
2022/01/01 02:05:46;;;;;;;1.95;1.20;;;;;;;;;;4882305;29;20164;-54
2022/01/01 02:08:12;;;;;;;0.95;0.65;;;;;;;;;;4883554;29;20080;-56
2022/01/01 02:10:39;;;;;;;1.15;0.82;;;;;;;;;;4881796;29;20490;-56
2022/01/01 02:13:12;;;;;;;1.52;0.93;;;;;;;;;;4883766;29;20092;-57
2022/01/01 02:18:13;;;;;;;3.50;1.75;;;;;;;;;;4883255;29;20121;-57
2022/01/01 02:20:38;;;;;;;0.98;0.82;;;;;;;;;;4881752;29;20044;-56
2022/01/01 02:23:05;;;;;;;1.33;1.02;;;;;;;;;;4883623;29;20488;-56
2022/01/01 02:25:31;;;;;;;1.67;1.27;;;;;;;;;;4883137;29;20108;-54
2022/01/01 02:27:57;;;;;;;1.15;1.05;;;;;;;;;;4883589;29;20053;-57
2022/01/01 02:30:23;;;;;;;4.45;2.72;;;;;;;;;;4882222;29;20701;-56
2022/01/01 02:32:49;;;;;;;3.55;3.25;;;;;;;;;;4882468;29;20071;-55
2022/01/01 02:35:16;;;;;;;2.58;2.30;;;;;;;;;;4883833;29;20754;-55
2022/01/01 02:37:42;;;;;;;0.55;0.40;;;;;;;;;;4881557;29;20033;-53
2022/01/01 02:40:09;;;;;;;1.17;0.80;;;;;;;;;;4883461;29;20055;-56
2022/01/01 02:42:35;;;;;;;0.80;0.55;;;;;;;;;;4883030;29;20074;-56
2022/01/01 02:45:06;;;;;;;0.95;0.80;;;;;;;;;;4883153;29;20044;-56
2022/01/01 02:47:32;;;;;;;1.95;1.85;;;;;;;;;;4880441;29;20052;-54
2022/01/01 02:49:58;;;;;;;0.82;0.55;;;;;;;;;;4883587;29;20483;-56
2022/01/01 02:52:24;;;;;;;0.20;0.20;;;;;;;;;;4882409;29;20048;-56
2022/01/01 02:54:50;;;;;;;0.40;0.40;;;;;;;;;;4883382;29;20123;-56
2022/01/01 02:57:16;;;;;;;1.25;1.15;;;;;;;;;;4882601;29;20561;-55
2022/01/01 02:59:42;;;;;;;1.27;0.98;;;;;;;;;;4882568;29;20528;-55
2022/01/01 03:02:08;;;;;;;1.40;1.08;;;;;;;;;;4882772;29;20048;-54
2022/01/01 03:04:34;;;;;;;0.52;0.52;;;;;;;;;;4882596;29;20053;-53
2022/01/01 03:07:00;;;;;;;0.63;0.40;;;;;;;;;;4882678;29;20044;-56
2022/01/01 03:09:34;;;;;;;0.88;0.65;;;;;;;;;;4879624;29;20048;-57
2022/01/01 03:12:04;;;;;;;0.30;0.30;;;;;;;;;;4883361;29;20062;-56
2022/01/01 03:14:29;;;;;;;1.63;1.52;;;;;;;;;;4883494;29;20049;-54
2022/01/01 03:16:55;;;;;;;0.77;0.75;;;;;;;;;;4883912;29;20405;-54
2022/01/01 03:19:21;;;;;;;0.50;0.40;;;;;;;;;;4883917;29;20047;-55
2022/01/01 03:21:47;;;;;;;0.95;0.68;;;;;;;;;;4884470;29;20045;-56
2022/01/01 03:24:13;;;;;;;1.50;1.40;;;;;;;;;;4880442;29;20055;-56
2022/01/01 03:26:39;;;;;;;3.60;1.77;;;;;;;;;;4882002;29;20141;-56
2022/01/01 03:29:05;;;;;;;0.52;0.50;;;;;;;;;;4884425;29;20056;-57
2022/01/01 03:31:31;;;;;;;0.20;0.20;;;;;;;;;;4882012;29;20061;-56
2022/01/01 03:33:58;;;;;;;0.40;0.40;;;;;;;;;;4884735;29;20553;-56
2022/01/01 03:36:27;;;;;;;3.05;1.65;;;;;;;;;;4882687;29;20050;-56
2022/01/01 03:38:53;;;;;;;1.23;1.15;;;;;;;;;;4885027;29;20044;-57
2022/01/01 03:41:19;;;;;;;1.83;1.60;;;;;;;;;;4885395;29;20048;-56
2022/01/01 03:43:45;;;;;;;1.25;0.98;;;;;;;;;;4884717;29;20123;-56
2022/01/01 03:46:11;;;;;;;1.65;1.42;;;;;;;;;;4890324;29;20096;-58
2022/01/01 03:48:37;;;;;;;0.88;0.63;;;;;;;;;;4893120;29;20044;-57
2022/01/01 03:51:03;;;;;;;0.22;0.22;;;;;;;;;;4892608;29;20643;-57
2022/01/01 03:53:28;;;;;;;2.55;1.85;;;;;;;;;;4890980;29;20049;-54
2022/01/01 03:55:54;;;;;;;0.93;0.85;;;;;;;;;;4891428;29;20117;-56
2022/01/01 03:58:20;;;;;;;0.50;0.38;;;;;;;;;;4885298;29;20056;-57
2022/01/01 04:00:47;;;;;;;0.30;0.30;;;;;;;;;;4891314;29;20044;-56
2022/01/01 04:03:13;;;;;;;0.50;0.50;;;;;;;;;;4891634;29;20294;-57
2022/01/01 04:05:42;;;;;;;0.57;0.57;;;;;;;;;;4891095;29;20096;-57
2022/01/01 04:08:09;;;;;;;0.50;0.45;;;;;;;;;;4891405;29;20436;-57
2022/01/01 04:10:35;;;;;;;1.50;0.93;;;;;;;;;;4891499;29;20044;-57
2022/01/01 04:13:01;;;;;;;1.00;0.95;;;;;;;;;;4891398;29;20438;-57
2022/01/01 04:15:27;;;;;;;0.93;0.47;;;;;;;;;;4888893;29;20711;-57
2022/01/01 04:18:00;;;;;;;0.60;0.52;;;;;;;;;;4889102;29;20087;-57
2022/01/01 04:20:26;;;;;;;0.35;0.35;;;;;;;;;;4888348;29;20510;-56
2022/01/01 04:22:53;;;;;;;0.30;0.30;;;;;;;;;;4886146;29;20099;-56
2022/01/01 04:25:20;;;;;;;0.30;0.30;;;;;;;;;;4879989;29;20114;-57
2022/01/01 04:27:46;;;;;;;0.40;0.30;;;;;;;;;;4887974;29;20063;-54
2022/01/01 04:30:12;;;;;;;2.33;1.55;;;;;;;;;;4886261;29;20036;-56
2022/01/01 04:32:38;;;;;;;0.75;0.75;;;;;;;;;;4885542;29;20116;-55
2022/01/01 04:35:04;;;;;;;1.83;1.63;;;;;;;;;;4885518;29;20917;-57
2022/01/01 04:37:30;;;;;;;2.50;0.98;;;;;;;;;;4884196;29;20044;-57
2022/01/01 04:39:59;;;;;;;0.57;0.47;;;;;;;;;;4881228;29;20051;-55
2022/01/01 04:42:28;;;;;;;2.00;1.13;;;;;;;;;;4885666;29;20060;-56
2022/01/01 04:44:54;;;;;;;0.20;0.20;;;;;;;;;;4886706;29;20506;-57
2022/01/01 04:47:20;;;;;;;0.98;0.85;;;;;;;;;;4881731;29;20410;-57
2022/01/01 04:49:46;;;;;;;0.40;0.30;;;;;;;;;;4884571;29;20048;-55
2022/01/01 04:52:12;;;;;;;1.65;0.82;;;;;;;;;;4884811;29;20060;-54
2022/01/01 04:54:42;;;;;;;0.22;0.22;;;;;;;;;;4882864;29;20067;-57
2022/01/01 04:57:08;;;;;;;1.98;1.75;;;;;;;;;;4884429;29;20562;-57
2022/01/01 04:59:35;;;;;;;1.20;0.93;;;;;;;;;;4879043;29;20045;-57
2022/01/01 05:02:01;;;;;;;1.45;0.82;;;;;;;;;;4885195;29;20051;-57
2022/01/01 05:04:27;;;;;;;2.42;1.40;;;;;;;;;;4883557;29;20063;-57
2022/01/01 05:06:52;;;;;;;0.20;0.20;;;;;;;;;;4883602;29;20052;-57
2022/01/01 05:09:19;;;;;;;0.95;0.85;;;;;;;;;;4884273;29;20064;-57
2022/01/01 05:11:46;;;;;;;0.40;0.40;;;;;;;;;;4884905;29;20056;-57
2022/01/01 05:14:12;;;;;;;0.65;0.65;;;;;;;;;;4884387;29;20502;-57
2022/01/01 05:16:38;;;;;;;0.57;0.50;;;;;;;;;;4883492;29;20080;-54
2022/01/01 05:19:04;;;;;;;0.30;0.30;;;;;;;;;;4884323;29;20103;-56
2022/01/01 05:21:32;;;;;;;0.70;0.70;;;;;;;;;;4883534;29;20155;-54
2022/01/01 05:23:59;;;;;;;1.80;1.55;;;;;;;;;;4884622;29;20131;-56
2022/01/01 05:26:25;;;;;;;1.00;0.93;;;;;;;;;;4883420;29;20505;-56
2022/01/01 05:28:51;;;;;;;0.65;0.50;;;;;;;;;;4884399;29;20052;-55
2022/01/01 05:31:19;;;;;;;0.60;0.52;;;;;;;;;;4884837;29;20135;-56
2022/01/01 05:33:48;;;;;;;0.30;0.30;;;;;;;;;;4883759;29;20041;-56
2022/01/01 05:36:14;;;;;;;0.60;0.60;;;;;;;;;;4882868;29;20044;-53
2022/01/01 05:38:40;;;;;;;0.20;0.20;;;;;;;;;;4883879;29;20056;-56
2022/01/01 05:41:06;;;;;;;1.73;1.63;;;;;;;;;;4885423;29;20037;-57
2022/01/01 05:43:32;;;;;;;0.57;0.40;;;;;;;;;;4885417;29;20072;-56
2022/01/01 05:45:58;;;;;;;1.08;0.52;;;;;;;;;;4887842;29;20048;-57
2022/01/01 05:48:23;;;;;;;0.30;0.30;;;;;;;;;;4889771;29;20048;-57
2022/01/01 05:50:49;;;;;;;0.98;0.75;;;;;;;;;;4882013;29;20153;-56
2022/01/01 05:53:15;;;;;;;1.30;1.20;;;;;;;;;;4885450;29;20033;-54
2022/01/01 05:55:41;;;;;;;0.52;0.30;;;;;;;;;;4882017;29;20060;-54
2022/01/01 05:58:07;;;;;;;1.77;1.65;;;;;;;;;;4883620;29;20167;-57
2022/01/01 06:00:34;;;;;;;0.28;0.28;;;;;;;;;;4883349;29;20127;-57
2022/01/01 06:02:59;;;;;;;0.50;0.50;;;;;;;;;;4882906;29;20033;-54
2022/01/01 06:05:26;;;;;;;0.30;0.30;;;;;;;;;;4882780;29;20052;-56
2022/01/01 06:07:53;;;;;;;0.50;0.50;;;;;;;;;;4881930;29;20055;-57
2022/01/01 06:10:19;;;;;;;0.30;0.30;;;;;;;;;;4883174;29;20095;-57
2022/01/01 06:12:45;;;;;;;0.50;0.50;;;;;;;;;;4884582;29;20655;-58
2022/01/01 06:15:10;;;;;;;0.20;0.20;;;;;;;;;;4884638;29;20096;-56
2022/01/01 06:17:36;;;;;;;0.47;0.30;;;;;;;;;;4882536;29;20050;-57
2022/01/01 06:20:02;;;;;;;0.38;0.30;;;;;;;;;;4884157;29;20048;-57
2022/01/01 06:22:28;;;;;;;0.20;0.20;;;;;;;;;;4882426;29;20092;-56
2022/01/01 06:24:54;;;;;;;1.38;1.05;;;;;;;;;;4882709;29;20303;-54
2022/01/01 06:27:20;;;;;;;0.68;0.50;;;;;;;;;;4878664;29;20502;-56
2022/01/01 06:29:46;;;;;;;0.30;0.30;;;;;;;;;;4882515;29;20056;-55
2022/01/01 06:32:12;;;;;;;0.22;0.22;;;;;;;;;;4883550;29;20108;-56
2022/01/01 06:34:38;;;;;;;0.28;0.28;;;;;;;;;;4882363;29;20068;-57
2022/01/01 06:37:03;;;;;;;0.63;0.30;;;;;;;;;;4883203;29;21856;-54
2022/01/01 06:39:29;;;;;;;0.47;0.43;;;;;;;;;;4881192;29;20085;-54
2022/01/01 06:41:55;;;;;;;1.05;0.70;;;;;;;;;;4883116;29;20041;-56
2022/01/01 06:44:21;;;;;;;0.30;0.30;;;;;;;;;;4882886;29;20067;-56
2022/01/01 06:46:47;;;;;;;0.22;0.22;;;;;;;;;;4882651;29;20128;-56
2022/01/01 06:49:12;;;;;;;0.30;0.30;;;;;;;;;;4878163;29;20037;-52
2022/01/01 06:51:38;;;;;;;0.30;0.30;;;;;;;;;;4884089;29;20075;-54
2022/01/01 06:54:05;;;;;;;0.38;0.30;;;;;;;;;;4882606;29;20147;-57
2022/01/01 06:56:31;;;;;;;0.50;0.50;;;;;;;;;;4881563;29;20549;-54
2022/01/01 06:58:57;;;;;;;0.30;0.30;;;;;;;;;;4882289;29;20127;-56
2022/01/01 07:01:22;;;;;;;0.38;0.30;;;;;;;;;;4882874;29;20049;-57
2022/01/01 07:03:48;;;;;;;0.73;0.45;;;;;;;;;;4881965;29;20111;-56
2022/01/01 07:06:14;;;;;;;1.70;1.60;;;;;;;;;;4881403;29;20171;-56
2022/01/01 07:08:40;;;;;;;0.25;0.25;;;;;;;;;;4880993;29;20108;-57
2022/01/01 07:11:06;;;;;;;0.65;0.60;;;;;;;;;;4882741;29;20044;-56
2022/01/01 07:13:32;;;;;;;0.32;0.32;;;;;;;;;;4881414;29;20671;-57
2022/01/01 07:15:58;;;;;;;0.75;0.47;;;;;;;;;;4881498;29;20053;-56
2022/01/01 07:18:23;;;;;;;0.55;0.55;;;;;;;;;;4879217;29;20052;-54
2022/01/01 07:20:49;;;;;;;1.92;1.40;;;;;;;;;;4883053;29;20048;-55
2022/01/01 07:23:15;;;;;;;0.45;0.40;;;;;;;;;;4882122;29;20055;-54
2022/01/01 07:25:41;;;;;;;0.30;0.30;;;;;;;;;;4881783;29;20044;-55
2022/01/01 07:28:09;;;;;;;0.85;0.65;;;;;;;;;;4882278;29;20123;-55
2022/01/01 07:30:35;;;;;;;0.40;0.40;;;;;;;;;;4876204;29;20163;-53
2022/01/01 07:33:01;;;;;;;0.30;0.30;;;;;;;;;;4882449;29;20047;-57
2022/01/01 07:35:27;;;;;;;0.30;0.30;;;;;;;;;;4881384;29;20052;-57
2022/01/01 07:37:53;;;;;;;0.30;0.30;;;;;;;;;;4882464;29;20037;-55
2022/01/01 07:40:19;;;;;;;3.20;1.75;;;;;;;;;;4880058;29;20044;-53
2022/01/01 07:42:44;;;;;;;0.30;0.30;;;;;;;;;;4882268;29;20068;-54
2022/01/01 07:45:10;;;;;;;0.25;0.25;;;;;;;;;;4881747;29;20163;-55
2022/01/01 07:47:36;;;;;;;0.30;0.30;;;;;;;;;;4881741;29;20065;-54
2022/01/01 07:50:03;;;;;;;1.35;1.20;;;;;;;;;;4882258;29;20044;-53
2022/01/01 07:52:29;;;;;;;0.22;0.22;;;;;;;;;;4882610;29;20060;-55
2022/01/01 07:54:55;;;;;;;0.20;0.20;;;;;;;;;;4886413;29;20136;-56
2022/01/01 07:57:20;;;;;;;0.90;0.30;;;;;;;;;;4890156;29;20044;-53
2022/01/01 07:59:46;;;;;;;0.35;0.35;;;;;;;;;;4881819;29;20170;-52
2022/01/01 08:02:12;;;;;;;0.68;0.63;;;;;;;;;;4882076;29;20063;-55
2022/01/01 08:04:38;;;;;;;1.27;1.13;;;;;;;;;;4880164;29;20482;-56
2022/01/01 08:07:04;;;;;;;2.40;1.58;;;;;;;;;;4876132;29;20566;-56
2022/01/01 08:09:30;;;;;;;0.32;0.32;;;;;;;;;;4881656;29;20397;-55
2022/01/01 08:11:56;;;;;;;0.22;0.22;;;;;;;;;;4881130;29;20052;-54
2022/01/01 08:14:22;;;;;;;6.10;0.95;;;;;;;;;;4879697;29;20135;-55
2022/01/01 08:16:55;;;;;;;0.25;0.25;;;;;;;;;;4878687;29;20037;-55
2022/01/01 08:19:21;;;;;;;0.40;0.40;;;;;;;;;;4880545;29;20053;-52
2022/01/01 08:21:47;;;;;;;1.38;1.27;;;;;;;;;;4881233;29;20041;-53
2022/01/01 08:24:13;;;;;;;3.50;2.05;;;;;;;;;;4881744;29;20040;-53
2022/01/01 08:26:38;;;;;;;0.30;0.30;;;;;;;;;;4880284;29;20049;-55
2022/01/01 08:29:04;;;;;;;0.28;0.28;;;;;;;;;;4881161;29;20048;-52
2022/01/01 08:31:30;;;;;;;0.20;0.20;;;;;;;;;;4884381;29;20052;-53
2022/01/01 08:33:56;;;;;;;0.30;0.30;;;;;;;;;;4885682;29;20041;-55
2022/01/01 08:36:22;;;;;;;1.40;1.23;;;;;;;;;;4884438;29;20052;-54
2022/01/01 08:38:48;;;;;;;0.63;0.57;;;;;;;;;;4887227;29;20141;-54
2022/01/01 08:41:14;;;;;;;0.32;0.30;;;;;;;;;;4887279;29;20490;-52
2022/01/01 08:43:40;;;;;;;0.60;0.55;;;;;;;;;;4881502;29;20106;-54
2022/01/01 08:46:07;;;;;;;0.43;0.43;;;;;;;;;;4886389;29;20545;-51
2022/01/01 08:48:33;;;;;;;0.75;0.75;;;;;;;;;;4887846;29;20565;-54
2022/01/01 08:50:59;;;;;;;0.45;0.35;;;;;;;;;;4892856;29;20057;-57
2022/01/01 08:53:25;;;;;;;0.30;0.30;;;;;;;;;;4896774;29;20051;-53
2022/01/01 08:55:52;;;;;;;0.77;0.65;;;;;;;;;;4896290;29;20048;-56
2022/01/01 08:58:19;;;;;;;0.30;0.30;;;;;;;;;;4896147;29;20094;-54
2022/01/01 09:00:45;;;;;;;0.20;0.20;;;;;;;;;;4895774;29;20040;-57
2022/01/01 09:03:11;;;;;;;1.35;0.70;;;;;;;;;;4894726;29;20063;-58
2022/01/01 09:05:37;;;;;;;0.50;0.50;;;;;;;;;;4887527;29;20120;-55
2022/01/01 09:08:03;;;;;;;0.30;0.30;;;;;;;;;;4885924;29;20580;-54
2022/01/01 09:10:29;;;;;;;0.40;0.40;;;;;;;;;;4884300;29;20047;-55
2022/01/01 09:12:55;;;;;;;0.47;0.47;;;;;;;;;;4883371;29;20045;-56
2022/01/01 09:15:20;;;;;;;0.30;0.30;;;;;;;;;;4883777;29;20078;-55
2022/01/01 09:17:46;;;;;;;0.30;0.30;;;;;;;;;;4883499;29;20053;-54
2022/01/01 09:20:12;;;;;;;3.30;1.42;;;;;;;;;;4884868;29;20060;-55
2022/01/01 09:22:38;;;;;;;0.60;0.60;;;;;;;;;;4884692;29;20124;-52
2022/01/01 09:25:04;;;;;;;1.35;1.25;;;;;;;;;;4884131;29;20044;-54
2022/01/01 09:27:30;;;;;;;1.17;1.08;;;;;;;;;;4883669;29;20047;-54
2022/01/01 09:29:56;;;;;;;0.30;0.30;;;;;;;;;;4884509;29;20999;-54
2022/01/01 09:32:22;;;;;;;0.45;0.45;;;;;;;;;;4883355;29;20059;-54
2022/01/01 09:34:48;;;;;;;0.30;0.30;;;;;;;;;;4884625;29;21707;-53
2022/01/01 09:37:14;;;;;;;1.00;0.50;;;;;;;;;;4882243;29;20041;-53
2022/01/01 09:39:40;;;;;;;0.65;0.65;;;;;;;;;;4883762;29;20056;-55
2022/01/01 09:42:06;;;;;;;0.32;0.32;;;;;;;;;;4883771;29;20135;-57
2022/01/01 09:44:35;;;;;;;0.60;0.40;;;;;;;;;;4883460;29;20091;-54
2022/01/01 09:47:01;;;;;;;0.55;0.55;;;;;;;;;;4883437;29;20055;-55
2022/01/01 09:49:26;;;;;;;0.30;0.30;;;;;;;;;;4883704;29;20040;-55
2022/01/01 09:51:52;;;;;;;0.30;0.30;;;;;;;;;;4883774;29;20151;-54
2022/01/01 09:54:18;;;;;;;0.47;0.43;;;;;;;;;;4883354;29;20123;-55
2022/01/01 09:56:44;;;;;;;0.40;0.40;;;;;;;;;;4883230;29;20099;-54
2022/01/01 09:59:13;;;;;;;0.60;0.60;;;;;;;;;;4883760;29;20060;-51
2022/01/01 10:01:39;;;;;;;0.30;0.30;;;;;;;;;;4882753;29;20155;-55
2022/01/01 10:04:12;;;;;;;9.80;0.93;;;;;;;;;;4882631;29;20533;-53
2022/01/01 10:06:37;;;;;;;;;;;;;;;;;;4882521;29;20047;-54
2022/01/01 10:09:04;;;;;;;3.60;2.15;;;;;;;;;;4882900;29;19915;-53
2022/01/01 10:11:31;;;;;;;0.30;0.30;;;;;;;;;;4882389;29;20044;-52
2022/01/01 10:13:57;;;;;;;0.93;0.60;;;;;;;;;;4884095;29;20043;-56
2022/01/01 10:16:23;;;;;;;0.30;0.30;;;;;;;;;;4881162;29;20045;-55
2022/01/01 10:18:50;;;;;;;0.55;0.32;;;;;;;;;;4883662;29;20052;-54
2022/01/01 10:21:17;;;;;;;0.30;0.30;;;;;;;;;;4883449;29;20067;-52
2022/01/01 10:23:45;;;;;;;0.60;0.60;;;;;;;;;;4882913;29;20048;-55
2022/01/01 10:28:56;;;;;;;0.20;0.20;;;;;;;;;;4882343;29;20600;-53
2022/01/01 10:31:23;;;;;;;0.30;0.30;;;;;;;;;;4882261;29;20056;-56
2022/01/01 10:33:49;;;;;;;1.23;1.10;;;;;;;;;;4883494;29;20096;-52
2022/01/01 10:36:15;;;;;;;0.30;0.30;;;;;;;;;;4882264;29;20077;-55
2022/01/01 10:38:41;;;;;;;2.28;1.33;;;;;;;;;;4882729;29;20040;-54
2022/01/01 10:41:08;;;;;;;0.63;0.63;;;;;;;;;;4883752;29;20773;-55
2022/01/01 10:43:35;;;;;;;2.22;1.33;;;;;;;;;;4878056;29;20127;-53
2022/01/01 10:46:02;;;;;;;0.63;0.55;;;;;;;;;;4883049;29;20041;-52
2022/01/01 10:48:41;;;;;;;0.35;0.30;;;;;;;;;;4882789;29;20132;-54
2022/01/01 10:51:09;;;;;;;0.30;0.30;;;;;;;;;;4882794;29;20060;-53
2022/01/01 10:53:35;;;;;;;0.30;0.30;;;;;;;;;;4881681;29;20767;-52
2022/01/01 10:56:02;;;;;;;1.83;0.93;;;;;;;;;;4883101;29;20044;-53
2022/01/01 10:58:29;;;;;;;0.40;0.40;;;;;;;;;;4880987;29;20423;-54
2022/01/01 11:01:03;;;;;;;1.00;0.63;;;;;;;;;;4882713;29;20041;-55
2022/01/01 11:03:34;;;;;;;2.95;1.42;;;;;;;;;;4881832;29;20041;-53
2022/01/01 11:06:08;;;;;;;0.30;0.30;;;;;;;;;;4881831;29;20063;-53
2022/01/01 11:08:35;;;;;;;0.55;0.50;;;;;;;;;;4882526;29;20188;-53
2022/01/01 11:11:01;;;;;;;0.40;0.40;;;;;;;;;;4880894;29;20405;-52
2022/01/01 11:13:27;;;;;;;0.40;0.40;;;;;;;;;;4881748;29;20057;-55
2022/01/01 11:15:53;;;;;;;0.22;0.22;;;;;;;;;;4882866;29;20056;-52
2022/01/01 11:18:19;;;;;;;0.63;0.40;;;;;;;;;;4882948;29;20055;-55
2022/01/01 11:20:45;;;;;;;0.30;0.30;;;;;;;;;;4882676;29;20052;-54
2022/01/01 11:23:12;;;;;;;0.30;0.30;;;;;;;;;;4884072;29;20037;-52
2022/01/01 11:25:38;;;;;;;0.63;0.40;;;;;;;;;;4887317;29;20056;-55
2022/01/01 11:28:07;;;;;;;0.65;0.57;;;;;;;;;;4895923;29;20100;-55
2022/01/01 11:30:35;;;;;;;0.30;0.30;;;;;;;;;;4885559;29;20762;-54
2022/01/01 11:33:03;;;;;;;0.30;0.30;;;;;;;;;;4882239;29;21127;-53
2022/01/01 11:35:30;;;;;;;1.65;0.95;;;;;;;;;;4880931;29;20043;-54
2022/01/01 11:37:58;;;;;;;0.30;0.30;;;;;;;;;;4882565;29;20072;-52
2022/01/01 11:40:24;;;;;;;0.38;0.38;;;;;;;;;;4881000;29;20495;-54
2022/01/01 11:42:50;;;;;;;0.28;0.28;;;;;;;;;;4881778;29;20039;-56
2022/01/01 11:45:34;;;;;;;0.30;0.30;;;;;;;;;;4881847;29;20049;-53
2022/01/01 11:48:19;;;;;;;1.73;1.15;;;;;;;;;;4882091;29;20047;-53
2022/01/01 11:50:45;;;;;;;0.47;0.40;;;;;;;;;;4881696;29;20043;-52
2022/01/01 11:53:26;;;;;;;3.33;0.73;;;;;;;;;;4882186;29;20037;-53
2022/01/01 11:56:05;;;;;;;0.30;0.30;;;;;;;;;;4882265;29;20332;-53
2022/01/01 11:58:48;;;;;;;0.52;0.30;;;;;;;;;;4882243;29;21154;-53
2022/01/01 12:01:17;;;;;;;0.90;0.90;;;;;;;;;;4882914;29;20127;-53
2022/01/01 12:03:53;;;;;;;0.47;0.35;;;;;;;;;;4882535;29;20092;-55
2022/01/01 12:06:20;;;;;;;0.68;0.65;;;;;;;;;;4885056;29;20048;-55
2022/01/01 12:08:46;;;;;;;0.40;0.30;;;;;;;;;;4886747;29;20044;-55
2022/01/01 12:11:32;;;;;;;0.30;0.30;;;;;;;;;;4885589;29;20056;-56
2022/01/01 12:13:58;;;;;;;0.30;0.30;;;;;;;;;;4884928;29;20496;-56
2022/01/01 12:16:24;;;;;;;0.43;0.32;;;;;;;;;;4885323;29;20068;-54
2022/01/01 12:18:59;;;;;;;0.30;0.30;;;;;;;;;;4890898;29;20088;-55
2022/01/01 12:21:27;;;;;;;0.55;0.55;;;;;;;;;;4902657;29;20040;-56
2022/01/01 12:23:57;;;;;;;0.30;0.30;;;;;;;;;;4895321;29;20041;-56
2022/01/01 12:26:30;;;;;;;0.35;0.30;;;;;;;;;;4889810;29;20572;-55
2022/01/01 12:29:00;;;;;;;0.30;0.28;;;;;;;;;;4886964;29;20089;-56
2022/01/01 12:31:28;;;;;;;0.68;0.68;;;;;;;;;;4885414;29;20056;-55
2022/01/01 12:33:57;;;;;;;1.63;1.52;;;;;;;;;;4885715;29;20041;-56
2022/01/01 12:36:24;;;;;;;0.30;0.30;;;;;;;;;;4884384;29;20099;-55
2022/01/01 12:38:58;;;;;;;0.25;0.25;;;;;;;;;;4885073;29;20055;-55
2022/01/01 12:41:30;;;;;;;1.13;0.93;;;;;;;;;;4884629;29;20033;-56
2022/01/01 12:43:57;;;;;;;0.20;0.20;;;;;;;;;;4885278;29;20466;-56
2022/01/01 12:46:24;;;;;;;0.30;0.30;;;;;;;;;;4873825;29;20048;-55
2022/01/01 12:48:50;;;;;;;0.30;0.30;;;;;;;;;;4883694;29;20033;-54
2022/01/01 12:51:19;;;;;;;0.22;0.22;;;;;;;;;;4885103;29;20139;-53
2022/01/01 12:53:47;;;;;;;3.30;2.58;;;;;;;;;;4883594;29;20051;-55
2022/01/01 12:56:16;;;;;;;1.55;1.05;;;;;;;;;;4868169;29;20049;-53
2022/01/01 12:58:46;;;;;;;0.30;0.30;;;;;;;;;;4884869;29;20040;-55
2022/01/01 13:01:13;;;;;;;0.30;0.30;;;;;;;;;;4884217;29;20036;-55
2022/01/01 13:03:39;;;;;;;0.25;0.25;;;;;;;;;;4884528;29;20040;-54
2022/01/01 13:06:06;;;;;;;0.70;0.40;;;;;;;;;;4884655;29;20119;-54
2022/01/01 13:08:32;;;;;;;0.30;0.30;;;;;;;;;;4883952;29;20041;-55
2022/01/01 13:10:58;;;;;;;0.30;0.30;;;;;;;;;;4883721;29;20111;-55
2022/01/01 13:13:25;;;;;;;0.75;0.30;;;;;;;;;;4883793;29;20099;-55
2022/01/01 13:15:54;;;;;;;0.20;0.20;;;;;;;;;;4885017;29;20041;-54
2022/01/01 13:18:20;;;;;;;0.80;0.70;;;;;;;;;;4882660;29;20048;-53
2022/01/01 13:20:46;;;;;;;0.35;0.30;;;;;;;;;;4884149;29;20194;-53
2022/01/01 13:23:17;;;;;;;1.50;1.38;;;;;;;;;;4885591;29;20093;-53
2022/01/01 13:25:43;;;;;;;0.28;0.28;;;;;;;;;;4884331;29;20099;-55
2022/01/01 13:28:08;;;;;;;0.30;0.30;;;;;;;;;;4884442;29;20215;-55
2022/01/01 13:30:34;;;;;;;0.50;0.40;;;;;;;;;;4883430;29;21017;-54
2022/01/01 13:33:01;;;;;;;0.40;0.40;;;;;;;;;;4884282;29;20049;-55
2022/01/01 13:35:28;;;;;;;0.25;0.25;;;;;;;;;;4884324;29;20045;-52
2022/01/01 13:37:54;;;;;;;0.47;0.40;;;;;;;;;;4884830;29;20502;-52
2022/01/01 13:40:20;;;;;;;0.70;0.30;;;;;;;;;;4883526;29;20053;-52
2022/01/01 13:42:46;;;;;;;3.00;0.93;;;;;;;;;;4883977;29;20500;-53
2022/01/01 13:45:11;;;;;;;1.00;0.60;;;;;;;;;;4884695;29;20481;-53
2022/01/01 13:47:37;;;;;;;0.55;0.55;;;;;;;;;;4880446;29;20045;-54
2022/01/01 13:50:13;;;;;;;0.30;0.30;;;;;;;;;;4882856;29;20047;-56
2022/01/01 13:52:51;;;;;;;0.30;0.30;;;;;;;;;;4874371;29;20068;-52
2022/01/01 13:55:21;;;;;;;0.28;0.28;;;;;;;;;;4882940;29;20044;-57
2022/01/01 13:57:54;;;;;;;0.73;0.73;;;;;;;;;;4882855;29;20108;-52
2022/01/01 14:00:20;;;;;;;0.80;0.40;;;;;;;;;;4880885;29;20562;-54
2022/01/01 14:02:46;;;;;;;0.50;0.40;;;;;;;;;;4897575;29;20048;-55
2022/01/01 14:05:15;;;;;;;0.20;0.20;;;;;;;;;;4882664;29;20482;-54
2022/01/01 14:07:41;;;;;;;0.30;0.30;;;;;;;;;;4882870;29;20044;-55
2022/01/01 14:10:10;;;;;;;0.32;0.32;;;;;;;;;;4882767;29;20049;-55
2022/01/01 14:12:38;;;;;;;0.20;0.20;;;;;;;;;;4882700;29;20060;-54
2022/01/01 14:15:13;;;;;;;0.32;0.30;;;;;;;;;;4884137;29;20044;-52
2022/01/01 14:17:58;;;;;;;0.30;0.30;;;;;;;;;;4883378;29;20052;-54
2022/01/01 14:20:25;;;;;;;0.47;0.40;;;;;;;;;;4881976;29;20044;-52
2022/01/01 14:22:51;;;;;;;4.45;2.95;;;;;;;;;;4883659;29;20040;-53
2022/01/01 14:25:18;;;;;;;0.88;0.68;;;;;;;;;;4883248;29;20051;-54
2022/01/01 14:27:44;;;;;;;0.30;0.30;;;;;;;;;;4884744;29;20044;-54
2022/01/01 14:30:10;;;;;;;0.45;0.22;;;;;;;;;;4883919;29;20049;-52
2022/01/01 14:32:36;;;;;;;0.20;0.20;;;;;;;;;;4882824;29;20131;-54
2022/01/01 14:35:03;;;;;;;0.65;0.50;;;;;;;;;;4883197;29;20036;-53
2022/01/01 14:37:30;;;;;;;0.20;0.20;;;;;;;;;;4882079;29;20108;-55
2022/01/01 14:39:56;;;;;;;0.30;0.30;;;;;;;;;;4883142;29;20076;-55
2022/01/01 14:42:22;;;;;;;0.50;0.40;;;;;;;;;;4882591;29;20068;-55
2022/01/01 14:44:48;;;;;;;0.38;0.38;;;;;;;;;;4882923;29;20185;-54
2022/01/01 14:47:19;;;;;;;0.57;0.32;;;;;;;;;;4882699;29;20656;-53
2022/01/01 14:49:50;;;;;;;0.30;0.30;;;;;;;;;;4881737;29;20055;-54